Time;durP1;ratioP1;P1;durP2;ratioP2;P2;SDS_P1;SDS_P2;PMS_P1;PMS_P2;Temp;Humidity;BMP_temperature;BMP_pressure;BME280_temperature;BME280_humidity;BME280_pressure;Samples;Min_cycle;Max_cycle;Signal;HPM_P1;HPM_P2
2023/08/29 00:00:34;;;;;;;16.95;13.07;;;16.00;99.90;;;;;;5021521;28;20056;-57
2023/08/29 00:03:03;;;;;;;17.05;12.70;;;16.20;99.90;;;;;;5022700;28;20607;-57
2023/08/29 00:05:29;;;;;;;18.63;11.95;;;16.10;99.90;;;;;;5021186;28;20529;-57
2023/08/29 00:07:55;;;;;;;15.55;12.38;;;16.00;99.90;;;;;;5021675;28;20392;-57
2023/08/29 00:10:21;;;;;;;16.73;12.90;;;16.00;99.90;;;;;;5020322;28;20091;-57
2023/08/29 00:12:46;;;;;;;20.45;12.02;;;16.00;99.90;;;;;;5010793;28;20037;-56
2023/08/29 00:15:12;;;;;;;15.50;12.38;;;16.00;99.90;;;;;;5018789;28;20136;-57
2023/08/29 00:17:37;;;;;;;16.00;12.70;;;15.80;99.90;;;;;;5020498;28;20064;-58
2023/08/29 00:20:03;;;;;;;14.95;12.80;;;15.90;99.90;;;;;;5023332;28;20029;-58
2023/08/29 00:22:29;;;;;;;12.98;11.20;;;15.80;99.90;;;;;;5021530;28;20029;-57
2023/08/29 00:24:57;;;;;;;13.88;10.70;;;15.70;99.90;;;;;;5022667;28;20129;-57
2023/08/29 00:27:23;;;;;;;19.38;11.68;;;15.60;99.90;;;;;;5022154;28;20041;-57
2023/08/29 00:29:49;;;;;;;13.93;11.23;;;15.40;99.90;;;;;;5021839;28;20048;-56
2023/08/29 00:32:14;;;;;;;14.75;12.13;;;15.20;99.90;;;;;;5021910;28;20112;-58
2023/08/29 00:34:40;;;;;;;15.50;11.88;;;15.10;99.90;;;;;;5020844;28;20095;-57
2023/08/29 00:37:06;;;;;;;13.63;10.45;;;15.30;99.90;;;;;;5021876;28;20040;-56
2023/08/29 00:39:31;;;;;;;16.45;11.80;;;15.30;99.90;;;;;;5014047;28;20080;-57
2023/08/29 00:41:57;;;;;;;16.63;11.70;;;15.40;99.90;;;;;;5010361;28;20050;-58
2023/08/29 00:44:23;;;;;;;16.90;12.30;;;15.30;99.90;;;;;;5020263;28;20041;-57
2023/08/29 00:46:49;;;;;;;16.38;13.25;;;15.30;99.90;;;;;;5021545;28;20128;-57
2023/08/29 00:49:23;;;;;;;18.33;12.88;;;15.40;99.90;;;;;;5022091;28;20479;-57
2023/08/29 00:51:49;;;;;;;19.33;12.95;;;15.50;99.90;;;;;;5022824;28;20037;-57
2023/08/29 00:54:17;;;;;;;16.95;12.88;;;15.40;99.90;;;;;;5021920;28;20036;-58
2023/08/29 00:56:44;;;;;;;15.73;12.88;;;15.50;99.90;;;;;;5021076;28;20103;-57
2023/08/29 00:59:10;;;;;;;15.60;12.50;;;15.40;99.90;;;;;;5018987;28;20160;-56
2023/08/29 01:01:36;;;;;;;17.27;12.65;;;15.40;99.90;;;;;;5021490;28;20045;-56
2023/08/29 01:04:02;;;;;;;17.73;12.15;;;15.30;99.90;;;;;;5026563;28;20034;-55
2023/08/29 01:06:30;;;;;;;14.38;12.02;;;14.90;99.90;;;;;;5025275;28;20120;-57
2023/08/29 01:08:57;;;;;;;15.00;11.43;;;15.00;99.90;;;;;;5025111;28;20120;-56
2023/08/29 01:11:43;;;;;;;15.00;11.32;;;15.10;99.90;;;;;;5022123;28;20040;-56
2023/08/29 01:14:22;;;;;;;15.75;12.68;;;15.10;99.90;;;;;;5021835;28;20448;-57
2023/08/29 01:17:12;;;;;;;14.95;11.23;;;15.20;99.90;;;;;;5025784;28;20040;-56
2023/08/29 01:19:40;;;;;;;17.10;12.05;;;15.10;99.90;;;;;;5027040;28;20128;-57
2023/08/29 01:22:25;;;;;;;13.98;11.02;;;15.10;99.90;;;;;;5025731;28;20030;-57
2023/08/29 01:25:00;;;;;;;16.92;12.13;;;15.00;99.90;;;;;;5024773;28;20505;-58
2023/08/29 01:27:27;;;;;;;14.85;11.40;;;15.10;99.90;;;;;;5018760;28;20042;-58
2023/08/29 01:29:53;;;;;;;14.75;11.75;;;15.20;99.90;;;;;;5021205;28;20049;-58
2023/08/29 01:32:20;;;;;;;16.92;12.48;;;15.00;99.90;;;;;;5008310;28;20055;-56
2023/08/29 01:34:46;;;;;;;15.13;11.73;;;15.10;99.90;;;;;;5025792;28;20041;-57
2023/08/29 01:37:12;;;;;;;14.27;10.63;;;15.00;99.90;;;;;;5025806;28;20067;-56
2023/08/29 01:39:38;;;;;;;16.67;10.80;;;14.90;99.90;;;;;;5024672;28;20112;-57
2023/08/29 01:42:04;;;;;;;15.63;11.25;;;14.90;99.90;;;;;;5024267;28;20041;-57
2023/08/29 01:44:29;;;;;;;15.32;11.63;;;14.70;99.90;;;;;;5024269;28;20033;-57
2023/08/29 01:46:55;;;;;;;16.08;11.07;;;14.80;99.90;;;;;;5019760;28;20038;-56
2023/08/29 01:49:20;;;;;;;13.95;12.05;;;14.70;99.90;;;;;;5021651;28;20037;-56
2023/08/29 01:51:46;;;;;;;14.68;11.55;;;14.90;99.90;;;;;;5022923;28;20045;-57
2023/08/29 01:54:12;;;;;;;16.13;12.48;;;14.90;99.90;;;;;;5025431;28;20080;-57
2023/08/29 01:56:42;;;;;;;14.20;11.35;;;14.70;99.90;;;;;;5024403;28;20037;-57
2023/08/29 01:59:08;;;;;;;15.27;11.43;;;14.60;99.90;;;;;;5030399;28;20033;-57
2023/08/29 02:01:34;;;;;;;19.02;11.57;;;14.80;99.90;;;;;;5007927;28;20037;-56
2023/08/29 02:03:59;;;;;;;13.55;11.48;;;14.80;99.90;;;;;;5025754;28;20076;-57
2023/08/29 02:06:25;;;;;;;16.20;11.43;;;14.60;99.90;;;;;;5027842;28;20493;-57
2023/08/29 02:08:50;;;;;;;16.08;11.77;;;14.70;99.90;;;;;;5012496;28;20033;-59
2023/08/29 02:11:16;;;;;;;18.05;12.02;;;14.80;99.90;;;;;;5015767;28;20038;-58
2023/08/29 02:13:42;;;;;;;12.52;10.45;;;14.80;99.90;;;;;;5015388;28;20044;-57
2023/08/29 02:16:07;;;;;;;13.43;10.77;;;14.60;99.90;;;;;;5020179;28;20128;-56
2023/08/29 02:18:33;;;;;;;14.23;10.90;;;14.50;99.90;;;;;;5024410;28;20030;-56
2023/08/29 02:20:59;;;;;;;13.70;10.30;;;14.40;99.90;;;;;;5024427;28;20052;-57
2023/08/29 02:23:25;;;;;;;15.10;11.00;;;14.40;99.90;;;;;;5022461;28;20083;-57
2023/08/29 02:26:04;;;;;;;19.27;12.23;;;14.50;99.90;;;;;;5024282;28;20033;-56
2023/08/29 02:28:37;;;;;;;15.57;11.75;;;14.60;99.90;;;;;;5021376;28;20064;-57
2023/08/29 02:31:07;;;;;;;16.52;11.77;;;14.60;99.90;;;;;;5013628;28;20444;-55
2023/08/29 02:33:35;;;;;;;14.63;10.82;;;14.50;99.90;;;;;;5022599;28;20436;-58
2023/08/29 02:36:01;;;;;;;14.43;11.05;;;14.40;99.90;;;;;;5022901;28;20132;-58
2023/08/29 02:38:27;;;;;;;15.05;10.45;;;14.30;99.90;;;;;;5023968;28;20113;-57
2023/08/29 02:40:53;;;;;;;17.83;11.75;;;14.30;99.90;;;;;;5019384;28;20038;-57
2023/08/29 02:43:18;;;;;;;17.05;11.98;;;14.30;99.90;;;;;;5024008;28;20174;-57
2023/08/29 02:45:44;;;;;;;17.00;12.68;;;14.40;99.90;;;;;;5023857;28;20037;-58
2023/08/29 02:48:09;;;;;;;17.38;12.50;;;14.70;99.90;;;;;;5012951;28;20049;-56
2023/08/29 02:50:36;;;;;;;15.23;12.40;;;14.60;99.90;;;;;;5023954;28;20033;-57
2023/08/29 02:53:02;;;;;;;13.60;11.40;;;14.60;99.90;;;;;;5024597;28;20463;-57
2023/08/29 02:55:28;;;;;;;15.00;11.88;;;14.60;99.90;;;;;;5020651;28;20040;-56
2023/08/29 02:57:54;;;;;;;15.77;12.15;;;14.40;99.90;;;;;;5003946;28;20049;-58
2023/08/29 03:00:20;;;;;;;17.58;11.57;;;14.40;99.90;;;;;;5021648;28;20304;-57
2023/08/29 03:02:45;;;;;;;15.23;11.52;;;14.40;99.90;;;;;;5023664;28;20511;-57
2023/08/29 03:05:11;;;;;;;16.15;12.48;;;14.50;99.90;;;;;;5015138;28;20036;-58
2023/08/29 03:07:36;;;;;;;20.50;12.93;;;14.40;99.90;;;;;;5020042;28;20362;-57
2023/08/29 03:10:02;;;;;;;18.38;13.20;;;14.50;99.90;;;;;;5023088;28;20041;-57
2023/08/29 03:12:28;;;;;;;16.90;13.10;;;14.60;99.90;;;;;;5023534;28;20509;-56
2023/08/29 03:14:54;;;;;;;20.30;13.50;;;14.60;99.90;;;;;;5023080;28;20060;-57
2023/08/29 03:17:21;;;;;;;19.10;13.98;;;14.60;99.90;;;;;;5022076;28;20094;-57
2023/08/29 03:19:47;;;;;;;20.95;15.45;;;14.50;99.90;;;;;;5022981;28;20087;-57
2023/08/29 03:22:13;;;;;;;21.50;16.48;;;14.60;99.90;;;;;;5014037;28;20180;-58
2023/08/29 03:24:39;;;;;;;22.23;15.82;;;14.60;99.90;;;;;;5017288;28;20320;-59
2023/08/29 03:27:04;;;;;;;27.17;18.42;;;14.50;99.90;;;;;;5023122;28;20110;-57
2023/08/29 03:29:30;;;;;;;25.45;18.95;;;14.50;99.90;;;;;;5024055;28;20042;-58
2023/08/29 03:31:55;;;;;;;24.73;17.60;;;14.50;99.90;;;;;;5021878;28;20040;-57
2023/08/29 03:34:21;;;;;;;24.63;17.50;;;14.50;99.90;;;;;;5023100;28;20490;-58
2023/08/29 03:36:46;;;;;;;23.25;17.60;;;14.50;99.90;;;;;;5022842;28;20037;-59
2023/08/29 03:39:12;;;;;;;27.38;19.02;;;14.50;99.90;;;;;;5022743;28;20441;-58
2023/08/29 03:41:38;;;;;;;29.30;17.98;;;14.40;99.90;;;;;;5014539;28;20397;-58
2023/08/29 03:44:05;;;;;;;25.50;17.58;;;14.20;99.90;;;;;;5022382;28;20052;-58
2023/08/29 03:46:30;;;;;;;26.17;18.30;;;14.20;99.90;;;;;;5026447;28;20040;-57
2023/08/29 03:48:56;;;;;;;28.08;19.33;;;14.10;99.90;;;;;;5034167;28;20033;-57
2023/08/29 03:51:22;;;;;;;24.90;18.77;;;14.20;99.90;;;;;;5031718;28;20041;-55
2023/08/29 03:53:48;;;;;;;27.17;19.90;;;14.30;99.90;;;;;;5027105;28;20037;-57
2023/08/29 03:56:13;;;;;;;32.83;20.52;;;14.40;99.90;;;;;;5026959;28;20041;-56
2023/08/29 03:58:39;;;;;;;28.27;20.88;;;14.40;99.90;;;;;;5016129;28;20182;-57
2023/08/29 04:01:04;;;;;;;28.10;20.33;;;14.30;99.90;;;;;;5005329;28;20041;-57
2023/08/29 04:03:33;;;;;;;29.77;19.38;;;14.20;99.90;;;;;;5025270;28;20044;-57
2023/08/29 04:06:00;;;;;;;28.50;20.38;;;14.20;99.90;;;;;;5021722;28;20042;-56
2023/08/29 04:08:25;;;;;;;27.90;20.73;;;14.20;99.90;;;;;;5023754;28;20041;-57
2023/08/29 04:10:51;;;;;;;27.42;20.60;;;14.10;99.90;;;;;;5018344;28;20043;-57
2023/08/29 04:13:16;;;;;;;28.75;21.27;;;14.30;99.90;;;;;;5009838;28;20060;-56
2023/08/29 04:15:43;;;;;;;30.38;20.85;;;14.50;99.90;;;;;;5025451;28;20040;-57
2023/08/29 04:18:09;;;;;;;31.55;21.23;;;14.50;99.90;;;;;;5022074;28;20137;-58
2023/08/29 04:20:35;;;;;;;28.38;20.38;;;14.30;99.90;;;;;;5025908;28;20055;-57
2023/08/29 04:23:03;;;;;;;26.52;18.42;;;14.20;99.90;;;;;;5027048;28;21985;-57
2023/08/29 04:25:30;;;;;;;30.90;19.85;;;14.30;99.90;;;;;;5022182;28;20078;-57
2023/08/29 04:27:56;;;;;;;28.58;19.90;;;14.30;99.90;;;;;;5021909;28;20552;-57
2023/08/29 04:30:22;;;;;;;28.75;20.77;;;14.30;99.90;;;;;;5020080;28;20126;-57
2023/08/29 04:32:48;;;;;;;30.13;20.55;;;14.30;99.90;;;;;;5026546;28;20554;-56
2023/08/29 04:35:14;;;;;;;30.45;19.55;;;14.40;99.90;;;;;;5012015;28;20033;-57
2023/08/29 04:37:39;;;;;;;29.10;19.85;;;14.40;99.90;;;;;;5029536;28;20087;-57
2023/08/29 04:40:10;;;;;;;27.02;19.95;;;14.40;99.90;;;;;;5031272;28;20120;-57
2023/08/29 04:42:37;;;;;;;27.38;20.00;;;14.50;99.90;;;;;;5030374;28;20033;-57
2023/08/29 04:45:06;;;;;;;25.33;18.67;;;14.50;99.90;;;;;;5006689;28;20348;-57
2023/08/29 04:47:32;;;;;;;25.80;18.40;;;14.40;99.90;;;;;;5022780;28;20272;-58
2023/08/29 04:49:58;;;;;;;25.52;18.15;;;14.30;99.90;;;;;;5031561;28;20051;-57
2023/08/29 04:52:24;;;;;;;31.70;20.65;;;14.30;99.90;;;;;;5023338;28;20068;-57
2023/08/29 04:54:50;;;;;;;27.08;19.75;;;14.50;99.90;;;;;;5030070;28;20069;-58
2023/08/29 04:57:16;;;;;;;26.88;19.92;;;14.40;99.90;;;;;;5028582;28;20029;-58
2023/08/29 04:59:41;;;;;;;28.25;20.27;;;14.50;99.90;;;;;;5031011;28;20037;-57
2023/08/29 05:02:08;;;;;;;27.27;20.35;;;14.30;99.90;;;;;;5029931;28;20028;-57
2023/08/29 05:04:34;;;;;;;30.00;19.73;;;14.30;99.90;;;;;;5021652;28;20029;-57
2023/08/29 05:06:59;;;;;;;27.88;20.00;;;14.20;99.90;;;;;;5030657;28;20056;-56
2023/08/29 05:09:25;;;;;;;29.05;19.33;;;14.30;99.90;;;;;;5031201;28;20041;-55
2023/08/29 05:11:50;;;;;;;29.25;20.85;;;14.40;99.90;;;;;;5028110;28;20079;-59
2023/08/29 05:14:16;;;;;;;31.67;21.25;;;14.50;99.90;;;;;;5027780;28;20043;-57
2023/08/29 05:16:41;;;;;;;35.80;21.55;;;14.60;99.90;;;;;;5029164;28;20060;-57
2023/08/29 05:19:08;;;;;;;32.30;21.20;;;14.50;99.90;;;;;;5011680;28;20079;-58
2023/08/29 05:21:34;;;;;;;30.52;19.77;;;14.50;99.90;;;;;;5026277;28;20070;-57
2023/08/29 05:24:00;;;;;;;28.58;19.33;;;14.40;99.90;;;;;;5026928;28;20129;-58
2023/08/29 05:26:26;;;;;;;30.10;20.40;;;14.30;99.90;;;;;;5027036;28;20040;-57
2023/08/29 05:28:51;;;;;;;30.60;20.45;;;14.30;99.90;;;;;;5027288;28;20128;-56
2023/08/29 05:31:17;;;;;;;27.92;19.85;;;14.20;99.90;;;;;;5027090;28;20036;-56
2023/08/29 05:33:43;;;;;;;34.15;20.38;;;14.20;99.90;;;;;;5021104;28;20041;-58
2023/08/29 05:36:08;;;;;;;29.20;20.13;;;14.20;99.90;;;;;;5026656;28;20033;-57
2023/08/29 05:38:34;;;;;;;27.67;20.40;;;13.90;99.90;;;;;;5027487;28;20578;-57
2023/08/29 05:41:00;;;;;;;31.13;20.75;;;;;;;;;;5025356;28;20439;-57
2023/08/29 05:43:26;;;;;;;34.28;21.13;;;14.50;99.90;;;;;;5026761;28;20151;-58
2023/08/29 05:45:54;;;;;;;28.60;20.55;;;14.40;99.90;;;;;;5034101;28;20505;-58
2023/08/29 05:48:20;;;;;;;30.95;20.63;;;;;;;;;;5025182;28;20044;-58
2023/08/29 05:50:49;;;;;;;28.58;20.83;;;14.40;99.90;;;;;;5025453;28;20053;-58
2023/08/29 05:53:15;;;;;;;32.28;20.98;;;14.50;99.90;;;;;;5027037;28;20033;-58
2023/08/29 05:55:41;;;;;;;36.22;21.83;;;14.30;99.90;;;;;;5014116;28;20563;-57
2023/08/29 05:58:07;;;;;;;29.60;21.15;;;14.40;99.90;;;;;;5015292;28;20546;-56
2023/08/29 06:00:33;;;;;;;38.25;21.45;;;14.40;99.90;;;;;;5020912;28;20579;-57
2023/08/29 06:03:01;;;;;;;31.13;21.77;;;14.60;99.90;;;;;;5016080;28;20095;-57
2023/08/29 06:05:26;;;;;;;32.13;22.17;;;14.70;99.90;;;;;;5020053;28;20049;-57
2023/08/29 06:07:52;;;;;;;36.30;22.02;;;14.80;99.90;;;;;;5017724;28;20037;-59
2023/08/29 06:10:18;;;;;;;33.60;22.80;;;14.70;99.90;;;;;;5017654;28;20030;-58
2023/08/29 06:12:44;;;;;;;36.10;21.90;;;14.60;99.90;;;;;;5019853;28;20044;-59
2023/08/29 06:15:09;;;;;;;39.65;27.38;;;14.60;99.90;;;;;;5026603;28;20401;-58
2023/08/29 06:17:35;;;;;;;41.10;25.55;;;14.70;99.90;;;;;;5021864;28;20029;-57
2023/08/29 06:20:01;;;;;;;30.77;21.58;;;14.80;99.90;;;;;;5019998;28;20041;-59
2023/08/29 06:22:26;;;;;;;28.27;20.95;;;14.40;99.90;;;;;;5025004;28;20025;-59
2023/08/29 06:24:52;;;;;;;29.40;20.67;;;14.50;99.90;;;;;;5025081;28;20026;-58
2023/08/29 06:27:17;;;;;;;32.47;21.98;;;14.70;99.90;;;;;;5022253;28;20122;-58
2023/08/29 06:29:43;;;;;;;31.38;22.00;;;14.60;99.90;;;;;;5018933;28;20029;-57
2023/08/29 06:32:09;;;;;;;35.88;21.73;;;14.50;99.90;;;;;;5031230;28;20658;-58
2023/08/29 06:34:34;;;;;;;30.77;22.25;;;14.80;99.90;;;;;;5025133;28;20478;-58
2023/08/29 06:37:00;;;;;;;34.08;22.58;;;14.80;99.90;;;;;;5017629;28;20471;-58
2023/08/29 06:39:26;;;;;;;35.00;23.75;;;15.00;99.90;;;;;;5015260;28;20026;-58
2023/08/29 06:41:51;;;;;;;34.28;23.02;;;15.00;99.90;;;;;;5024293;28;20053;-58
2023/08/29 06:44:17;;;;;;;35.80;23.67;;;15.10;99.90;;;;;;5024070;28;20034;-56
2023/08/29 06:46:42;;;;;;;36.70;24.23;;;15.30;99.90;;;;;;5024266;28;20461;-56
2023/08/29 06:49:08;;;;;;;39.40;24.63;;;15.40;99.90;;;;;;5006061;28;20064;-59
2023/08/29 06:51:34;;;;;;;40.22;24.98;;;15.50;99.90;;;;;;5024898;28;20041;-57
2023/08/29 06:54:00;;;;;;;37.83;23.08;;;15.40;99.90;;;;;;5025188;28;20120;-57
2023/08/29 06:56:25;;;;;;;38.28;23.38;;;15.30;99.90;;;;;;5019243;28;20048;-57
2023/08/29 06:58:51;;;;;;;34.83;24.65;;;15.30;99.90;;;;;;5024699;28;20521;-58
2023/08/29 07:01:17;;;;;;;34.53;23.65;;;15.50;99.90;;;;;;5023257;28;20037;-56
2023/08/29 07:03:42;;;;;;;35.22;23.70;;;15.50;99.90;;;;;;5024284;28;20041;-58
2023/08/29 07:06:08;;;;;;;33.88;23.50;;;15.60;99.90;;;;;;5023947;28;20349;-57
2023/08/29 07:08:33;;;;;;;31.92;22.83;;;15.60;99.90;;;;;;5017078;28;20390;-59
2023/08/29 07:10:59;;;;;;;34.22;22.73;;;15.50;99.90;;;;;;5021782;28;20037;-56
2023/08/29 07:13:24;;;;;;;30.95;22.20;;;15.30;99.90;;;;;;5022615;28;20029;-57
2023/08/29 07:15:50;;;;;;;42.67;25.17;;;15.40;99.90;;;;;;5021805;28;20029;-58
2023/08/29 07:18:15;;;;;;;33.40;23.27;;;15.50;99.90;;;;;;5022776;28;20045;-57
2023/08/29 07:20:41;;;;;;;33.88;22.98;;;15.60;99.90;;;;;;5024048;28;20030;-59
2023/08/29 07:23:07;;;;;;;31.75;21.70;;;15.70;99.90;;;;;;4999940;28;20044;-57
2023/08/29 07:25:41;;;;;;;37.67;21.92;;;15.60;99.90;;;;;;5010529;28;20570;-57
2023/08/29 07:28:09;;;;;;;30.17;21.98;;;15.50;99.90;;;;;;5011779;28;20044;-57
2023/08/29 07:30:35;;;;;;;33.78;21.67;;;15.70;99.90;;;;;;5015763;28;20037;-57
2023/08/29 07:33:00;;;;;;;32.67;21.65;;;15.70;99.90;;;;;;5015454;28;20447;-58
2023/08/29 07:35:26;;;;;;;35.50;22.27;;;15.70;99.90;;;;;;5011302;28;21229;-57
2023/08/29 07:37:52;;;;;;;33.67;22.00;;;15.70;99.90;;;;;;5014119;28;20037;-57
2023/08/29 07:40:17;;;;;;;30.70;22.13;;;15.80;99.90;;;;;;5016664;28;20453;-57
2023/08/29 07:42:44;;;;;;;33.97;21.88;;;15.90;99.90;;;;;;5022498;28;20037;-57
2023/08/29 07:45:09;;;;;;;32.53;22.70;;;16.00;99.90;;;;;;5017284;28;21246;-57
2023/08/29 07:47:35;;;;;;;29.38;21.92;;;16.10;99.90;;;;;;5019953;28;20453;-56
2023/08/29 07:50:01;;;;;;;34.72;22.58;;;16.10;99.90;;;;;;5021235;28;20038;-57
2023/08/29 07:52:26;;;;;;;31.10;20.10;;;16.10;99.90;;;;;;5019925;28;20056;-55
2023/08/29 07:54:52;;;;;;;31.25;20.65;;;16.20;99.90;;;;;;5020209;28;20032;-57
2023/08/29 07:57:17;;;;;;;31.77;20.98;;;16.10;99.90;;;;;;5006263;28;20050;-57
2023/08/29 07:59:43;;;;;;;40.03;23.75;;;16.50;99.90;;;;;;5014654;28;20043;-57
2023/08/29 08:02:08;;;;;;;26.25;18.02;;;16.50;99.90;;;;;;5016638;28;20132;-58
2023/08/29 08:04:34;;;;;;;23.13;16.80;;;16.70;99.90;;;;;;5021208;28;20108;-58
2023/08/29 08:07:00;;;;;;;24.73;16.35;;;16.70;99.90;;;;;;5014964;28;20184;-57
2023/08/29 08:09:26;;;;;;;28.45;16.92;;;16.80;99.90;;;;;;5006475;28;20043;-57
2023/08/29 08:11:52;;;;;;;28.92;18.25;;;16.90;99.90;;;;;;5019958;28;20038;-57
2023/08/29 08:14:17;;;;;;;23.75;17.63;;;16.90;99.90;;;;;;5021363;28;20037;-57
2023/08/29 08:16:43;;;;;;;22.63;15.30;;;17.00;99.90;;;;;;5019054;28;20052;-57
2023/08/29 08:19:10;;;;;;;20.52;14.98;;;16.90;99.90;;;;;;5021036;28;20040;-57
2023/08/29 08:21:35;;;;;;;20.83;13.60;;;16.90;99.90;;;;;;5018628;28;20049;-57
2023/08/29 08:24:01;;;;;;;23.92;13.90;;;16.80;99.90;;;;;;5012603;28;20057;-57
2023/08/29 08:26:27;;;;;;;22.27;13.88;;;16.90;99.90;;;;;;5018014;28;20037;-56
2023/08/29 08:28:54;;;;;;;19.60;13.90;;;16.00;99.90;;;;;;5001619;28;20051;-57
2023/08/29 08:31:20;;;;;;;20.48;13.82;;;17.00;99.90;;;;;;5007673;28;20461;-57
2023/08/29 08:33:46;;;;;;;19.48;12.85;;;17.00;99.90;;;;;;5020826;28;20037;-56
2023/08/29 08:36:11;;;;;;;20.02;11.48;;;16.90;99.90;;;;;;5009107;28;20041;-57
2023/08/29 08:38:37;;;;;;;18.42;11.88;;;17.20;99.90;;;;;;5020177;28;20038;-56
2023/08/29 08:41:04;;;;;;;22.17;12.00;;;17.30;99.90;;;;;;5018782;28;20052;-57
2023/08/29 08:43:31;;;;;;;17.77;12.20;;;17.40;99.90;;;;;;5018410;28;20567;-55
2023/08/29 08:45:58;;;;;;;16.63;11.95;;;17.50;99.90;;;;;;5002020;28;20559;-56
2023/08/29 08:48:25;;;;;;;21.75;12.30;;;17.40;99.90;;;;;;5018460;28;20049;-58
2023/08/29 08:50:50;;;;;;;18.98;10.93;;;17.50;99.90;;;;;;5016077;28;20477;-57
2023/08/29 08:53:20;;;;;;;16.75;11.07;;;17.60;99.90;;;;;;5016139;28;20044;-57
2023/08/29 08:55:46;;;;;;;17.40;10.82;;;17.40;99.90;;;;;;5019005;28;20038;-56
2023/08/29 08:58:12;;;;;;;17.42;10.95;;;17.40;99.90;;;;;;5020241;28;20042;-56
2023/08/29 09:00:38;;;;;;;13.95;10.48;;;17.60;99.90;;;;;;5018184;28;20053;-58
2023/08/29 09:03:04;;;;;;;18.52;9.98;;;17.80;99.90;;;;;;5017505;28;20171;-57
2023/08/29 09:05:29;;;;;;;15.43;10.40;;;17.80;99.90;;;;;;5023021;28;20040;-56
2023/08/29 09:07:55;;;;;;;15.10;9.40;;;17.80;99.90;;;;;;5002761;28;20477;-57
2023/08/29 09:10:21;;;;;;;15.48;9.38;;;17.70;99.90;;;;;;5016133;28;20404;-55
2023/08/29 09:12:47;;;;;;;12.20;8.63;;;17.90;99.90;;;;;;5020124;28;20409;-56
2023/08/29 09:15:16;;;;;;;13.30;8.40;;;17.90;99.90;;;;;;5021295;28;20033;-57
2023/08/29 09:17:46;;;;;;;11.52;6.88;;;18.10;99.90;;;;;;5016466;28;20041;-57
2023/08/29 09:20:12;;;;;;;14.02;7.30;;;18.20;99.90;;;;;;5022147;28;20159;-57
2023/08/29 09:22:41;;;;;;;22.45;13.88;;;18.20;99.90;;;;;;5009169;28;20175;-56
2023/08/29 09:25:06;;;;;;;14.85;8.15;;;18.40;99.90;;;;;;5016799;28;20675;-57
2023/08/29 09:27:44;;;;;;;12.75;7.45;;;18.60;99.90;;;;;;5022213;28;20037;-57
2023/08/29 09:30:12;;;;;;;12.00;6.55;;;18.80;99.90;;;;;;5018235;28;20191;-57
2023/08/29 09:32:43;;;;;;;13.25;7.05;;;18.60;99.90;;;;;;5022250;28;20045;-57
2023/08/29 09:35:16;;;;;;;8.95;6.10;;;18.60;99.90;;;;;;5016200;28;20129;-56
2023/08/29 09:37:50;;;;;;;7.27;4.73;;;18.80;99.90;;;;;;5023500;28;20045;-55
2023/08/29 09:40:20;;;;;;;8.43;4.63;;;18.80;99.90;;;;;;5017535;28;20658;-58
2023/08/29 09:42:59;;;;;;;8.77;4.75;;;18.80;99.90;;;;;;5016064;28;20073;-57
2023/08/29 09:45:24;;;;;;;9.00;4.60;;;18.80;99.90;;;;;;5017431;28;20045;-58
2023/08/29 09:47:54;;;;;;;7.75;4.63;;;18.90;99.90;;;;;;5019503;28;20387;-57
2023/08/29 09:50:21;;;;;;;5.43;3.80;;;18.90;99.90;;;;;;5021538;28;20145;-59
2023/08/29 09:52:48;;;;;;;6.07;2.90;;;18.90;99.90;;;;;;5010187;28;20499;-56
2023/08/29 09:55:16;;;;;;;8.18;3.95;;;18.90;99.90;;;;;;5017168;28;20386;-58
2023/08/29 09:57:43;;;;;;;5.18;3.10;;;18.90;99.90;;;;;;5016819;28;20125;-58
2023/08/29 10:00:12;;;;;;;6.70;3.63;;;18.60;99.90;;;;;;5012355;28;20540;-57
2023/08/29 10:02:40;;;;;;;8.35;3.00;;;19.10;99.90;;;;;;5021934;28;20045;-57
2023/08/29 10:05:09;;;;;;;6.57;3.55;;;19.10;99.90;;;;;;5028216;28;20030;-58
2023/08/29 10:07:46;;;;;;;8.48;3.80;;;19.10;99.90;;;;;;5024962;28;20116;-56
2023/08/29 10:10:12;;;;;;;6.88;4.00;;;19.10;99.90;;;;;;5022452;28;20103;-59
2023/08/29 10:12:39;;;;;;;7.03;4.32;;;19.00;99.90;;;;;;5020143;28;20041;-58
2023/08/29 10:15:05;;;;;;;7.55;4.28;;;19.00;99.90;;;;;;5017498;28;20647;-58
2023/08/29 10:20:53;;;;;;;7.60;4.47;;;19.00;99.90;;;;;;5880921;22;20054;-56
2023/08/29 10:23:20;;;;;;;6.72;4.05;;;19.00;99.90;;;;;;5013324;28;20622;-57
2023/08/29 10:25:46;;;;;;;8.35;3.90;;;19.00;99.90;;;;;;5022656;28;20740;-57
2023/08/29 10:28:13;;;;;;;7.53;3.90;;;19.00;99.90;;;;;;5010697;28;20025;-58
2023/08/29 10:30:43;;;;;;;9.05;4.07;;;19.10;99.90;;;;;;5019394;28;20034;-57
2023/08/29 10:33:08;;;;;;;7.65;3.83;;;19.00;99.90;;;;;;5017819;28;20041;-59
2023/08/29 10:35:34;;;;;;;6.30;3.28;;;18.90;99.90;;;;;;5023546;28;20113;-58
2023/08/29 10:38:20;;;;;;;5.07;3.10;;;19.00;99.90;;;;;;5021124;28;20492;-57
2023/08/29 10:40:46;;;;;;;6.65;2.90;;;19.30;99.90;;;;;;5016048;28;20234;-57
2023/08/29 10:43:22;;;;;;;5.80;2.33;;;19.40;99.90;;;;;;5017489;28;20037;-58
2023/08/29 10:46:01;;;;;;;4.20;2.25;;;19.40;99.90;;;;;;5024085;28;20514;-57
2023/08/29 10:48:31;;;;;;;3.40;2.03;;;;;;;;;;5014915;28;20496;-57
2023/08/29 10:51:19;;;;;;;7.38;2.55;;;19.80;99.90;;;;;;5020481;28;20136;-58
2023/08/29 10:53:51;;;;;;;4.75;1.70;;;19.90;99.90;;;;;;5016939;28;20034;-58
2023/08/29 10:56:19;;;;;;;3.08;1.50;;;18.90;99.90;;;;;;5019187;28;20034;-57
2023/08/29 10:58:47;;;;;;;4.82;2.10;;;20.10;99.90;;;;;;5011153;28;20400;-56
2023/08/29 11:01:28;;;;;;;3.90;1.90;;;20.40;99.90;;;;;;5010024;28;20060;-57
2023/08/29 11:03:55;;;;;;;3.42;1.58;;;20.20;99.90;;;;;;5001646;28;20425;-57
2023/08/29 11:06:25;;;;;;;3.58;1.70;;;20.30;99.90;;;;;;5016350;28;20504;-57
2023/08/29 11:09:24;;;;;;;5.38;2.38;;;20.50;99.90;;;;;;5017968;28;21577;-57
2023/08/29 11:12:08;;;;;;;7.82;2.13;;;20.70;99.90;;;;;;5015553;28;20041;-57
2023/08/29 11:14:56;;;;;;;3.22;1.55;;;20.30;99.90;;;;;;5020446;28;20452;-57
2023/08/29 11:17:23;;;;;;;4.28;1.45;;;20.20;99.90;;;;;;5016516;28;20128;-58
2023/08/29 11:19:53;;;;;;;4.88;1.73;;;20.70;99.90;;;;;;5015268;28;20503;-57
2023/08/29 11:22:22;;;;;;;6.90;2.88;;;20.40;99.90;;;;;;5017863;28;20457;-57
2023/08/29 11:24:54;;;;;;;5.05;2.92;;;20.40;99.90;;;;;;5013836;28;20403;-57
2023/08/29 11:27:23;;;;;;;8.60;3.22;;;20.30;99.90;;;;;;5014649;28;20764;-58
2023/08/29 11:29:49;;;;;;;7.05;3.47;;;20.30;99.90;;;;;;5012841;28;20160;-57
2023/08/29 11:32:16;;;;;;;5.03;3.28;;;20.40;99.90;;;;;;5013853;28;20114;-57
2023/08/29 11:34:42;;;;;;;5.07;2.60;;;20.00;99.90;;;;;;5013757;28;20033;-57
2023/08/29 11:37:11;;;;;;;4.45;2.83;;;19.90;99.90;;;;;;4999646;28;20114;-56
2023/08/29 11:39:38;;;;;;;7.00;2.80;;;19.80;99.90;;;;;;5011139;28;20065;-56
2023/08/29 11:42:03;;;;;;;5.35;2.70;;;19.70;99.90;;;;;;5014491;28;20048;-56
2023/08/29 11:44:33;;;;;;;4.65;2.60;;;19.80;99.90;;;;;;5016430;28;20281;-57
2023/08/29 11:46:59;;;;;;;5.13;2.47;;;20.10;99.90;;;;;;5017597;28;20087;-56
2023/08/29 11:49:25;;;;;;;12.73;3.10;;;19.90;99.90;;;;;;5012871;28;20050;-58
2023/08/29 11:51:51;;;;;;;4.72;3.17;;;19.90;99.90;;;;;;5017066;28;20045;-57
2023/08/29 11:54:56;;;;;;;3.97;2.50;;;20.10;99.90;;;;;;4983207;28;20033;-57
2023/08/29 11:57:22;;;;;;;5.43;3.10;;;20.30;99.90;;;;;;4949690;28;20074;-56
2023/08/29 11:59:50;;;;;;;6.25;2.58;;;19.50;99.90;;;;;;4956963;28;20446;-57
2023/08/29 12:02:17;;;;;;;7.65;3.05;;;20.40;99.90;;;;;;4990398;28;20103;-58
2023/08/29 12:04:47;;;;;;;4.68;2.50;;;20.10;99.90;;;;;;5012295;28;20060;-57
2023/08/29 12:07:17;;;;;;;5.70;2.72;;;19.60;99.90;;;;;;5013822;28;20133;-58
2023/08/29 12:09:44;;;;;;;5.65;2.67;;;21.50;99.90;;;;;;5021834;28;20088;-58
2023/08/29 12:12:29;;;;;;;6.07;2.20;;;20.40;99.90;;;;;;5015327;28;20044;-57
2023/08/29 12:14:54;;;;;;;4.63;2.10;;;22.10;99.90;;;;;;5018269;28;20346;-58
2023/08/29 12:17:20;;;;;;;4.93;1.95;;;20.30;99.90;;;;;;5018697;28;20049;-58
2023/08/29 12:19:47;;;;;;;6.30;2.22;;;20.10;99.90;;;;;;5017805;28;20340;-58
2023/08/29 12:22:13;;;;;;;5.18;1.90;;;20.40;99.90;;;;;;5019852;28;20069;-57
2023/08/29 12:24:39;;;;;;;4.65;1.90;;;20.10;99.90;;;;;;5019192;28;20511;-56
2023/08/29 12:27:06;;;;;;;4.43;1.90;;;19.40;99.90;;;;;;5020747;28;20048;-58
2023/08/29 12:29:32;;;;;;;5.63;1.88;;;20.20;99.90;;;;;;5020505;28;20048;-58
2023/08/29 12:31:58;;;;;;;2.30;1.42;;;19.10;99.90;;;;;;5016025;28;20045;-56
2023/08/29 12:34:23;;;;;;;3.60;1.40;;;20.30;99.90;;;;;;5021070;28;20042;-56
2023/08/29 12:36:49;;;;;;;2.00;1.08;;;20.70;99.90;;;;;;5015384;28;20045;-58